Another Hard Day at the Office Weather Stats

 
 
 

High monthly outside Temperature, 22.8 , C
Low monthly outside Temperature, -1.0 , C
High yearly outside Temperature, 30.9 , C
Low yearly outside Temperature, -2.2 , C

Low monthly barometer, 1001.1 , mb
High monthly barometer, 1028.0 , mb
Low yearly barometer, 975.0 , mb
High yearly barometer 1041.1 , mb

High wind speed, 25.0 , mph
Time of High wind speed, 21:37 , mph
High monthly wind speed, 47.0 , mph
High yearly wind speed, 55.0 , mph

 

 




3126
                    Temp     Hi    Low   Out    Dew  Wind  Wind   Wind    Hi    Hi   Wind   Heat    THW                Rain    Heat    Cool    In     In    In     In     In   In Air  Wind  Wind    ISS   Arc.
  Date    Time     Out   Temp   Temp   Hum    Pt. Speed   Dir    Run Speed   Dir  Chill  Index  Index   Bar    Rain  Rate    D-D     D-D    Temp   Hum    Dew   Heat    EMC Density  Samp   Tx   Recept  Int.
---------------------------------------------------------------------------------------------------------------------------------------------------------------------------------------------------------------
19/02/20   0:05  -67.8  -67.8  -67.8   ---    ---   0.0   ---   0.00   0.0   ---  -67.7    ---    ---  1017.3  0.02  0.31   0.299   0.000   22.1    43    8.9   21.1   8.18  .0741    115    1    100.0    5 
19/02/20   0:10  -67.8  -67.8  -67.8   ---    ---   0.0   ---   0.00   0.0   ---  -67.7    ---    ---  1017.3  0.01  0.31   0.299   0.000   22.0    43    8.8   21.0   8.19  .0742    116    1    100.0    5 
19/02/20   0:15  -67.8  -67.8  -67.8   ---    ---   0.0   ---   0.00   0.0   ---  -67.7    ---    ---  1017.4  0.00  0.09   0.299   0.000   22.0    43    8.8   21.0   8.19  .0742    116    1    100.0    5 
19/02/20   0:20  -67.8  -67.8  -67.8   ---    ---   0.0   ---   0.00   0.0   ---  -67.7    ---    ---  1017.3  0.01  0.09   0.299   0.000   22.0    43    8.8   21.0   8.19  .0742    116    1    100.0    5 
19/02/20   0:25  -67.8  -67.8  -67.8   ---    ---   0.0   ---   0.00   0.0   ---  -67.7    ---    ---  1017.3  0.08 57.60   0.299   0.000   22.0    43    8.8   21.0   8.19  .0742    116    1    100.0    5 
19/02/20   0:30  -67.8  -67.8  -67.8   ---    ---   0.0   ---   0.00   0.0   ---  -67.7    ---    ---  1017.3  0.07 44.31   0.299   0.000   21.9    43    8.8   20.9   8.19  .0742    117    1    100.0    5 
19/02/20   0:35  -67.8  -67.8  -67.8   ---    ---   0.0   ---   0.00   0.0   ---  -67.7    ---    ---  1017.4  0.03 15.57   0.299   0.000   21.9    43    8.8   20.9   8.19  .0742    115    1    100.0    5 
19/02/20   0:40    ---  -67.8  -67.8   ---    ---   0.0   ---   0.00   0.0   ---    ---    ---    ---  1017.5  0.08 44.31     ---     ---   21.9    43    8.7   20.8   8.19  .0742    117    1    100.0    5 
19/02/20   0:45  -67.8  -67.8  -67.8   ---    ---   0.0   ---   0.00   0.0   ---  -67.7    ---    ---  1017.7  0.02  0.59   0.299   0.000   21.9    43    8.7   20.8   8.19  .0742    117    1    100.0    5 
19/02/20   0:50  -67.8  -67.8  -67.8   ---    ---   0.0   ---   0.00   0.0   ---  -67.7    ---    ---  1017.8  0.10 44.31   0.299   0.000   21.9    43    8.7   20.8   8.19  .0742    117    1    100.0    5 
19/02/20   0:55  -67.8  -67.8  -67.8   ---    ---   0.0   ---   0.00   0.0   ---  -67.7    ---    ---  1017.9  0.03  2.73   0.299   0.000   21.9    43    8.7   20.8   8.19  .0742    117    1    100.0    5 
19/02/20   1:00  -67.8  -67.8  -67.8   ---    ---   0.0   ---   0.00   0.0   ---  -67.7    ---    ---  1018.0  0.07 82.29   0.299   0.000   21.9    43    8.7   20.8   8.19  .0742    117    1    100.0    5 
19/02/20   1:05  -67.8  -67.8  -67.8   ---    ---   0.0   ---   0.00   0.0   ---  -67.7    ---    ---  1018.0  0.02  0.49   0.299   0.000   21.8    43    8.7   20.8   8.20  .0743    115    1    100.0    5 
19/02/20   1:10  -67.8  -67.8  -67.8   ---    ---   0.0   ---   0.00   0.0   ---  -67.7    ---    ---  1018.0  0.01  0.31   0.299   0.000   21.8    43    8.6   20.7   8.20  .0743    115    1    100.0    5 
19/02/20   1:15  -67.8  -67.8  -67.8   ---    ---   0.0   ---   0.00   0.0   ---  -67.7    ---    ---  1018.0  0.09 12.00   0.299   0.000   21.8    43    8.6   20.7   8.20  .0743    118    1    100.0    5 
19/02/20   1:20  -67.8  -67.8  -67.8   ---    ---   0.0   ---   0.00   0.0   ---  -67.7    ---    ---  1018.3  0.02  8.86   0.299   0.000   21.8    43    8.6   20.7   8.20  .0743    117    1    100.0    5 
19/02/20   1:25    ---  -67.8  -67.8   ---    ---   0.0   ---   0.00   0.0   ---    ---    ---    ---  1018.2  0.01  0.12     ---     ---   21.8    43    8.6   20.7   8.20  .0743    117    1    100.0    5 
19/02/20   1:30    ---  -67.8  -67.8   ---    ---   0.0   ---   0.00   0.0   ---    ---    ---    ---  1018.4  0.03  0.48     ---     ---   21.7    43    8.6   20.6   8.21  .0743    117    1    100.0    5 
19/02/20   1:35    ---    ---    ---   ---    ---   0.0   ---   0.00   0.0   ---    ---    ---    ---  1018.4  0.00  0.12     ---     ---   21.7    43    8.5   20.5   8.21  .0743    116    1    100.0    5 
19/02/20   1:40  -67.8  -67.8  -67.8   ---    ---   0.0   ---   0.00   0.0   ---  -67.7    ---    ---  1018.6  0.00  0.06   0.299   0.000   21.7    43    8.5   20.5   8.21  .0744    117    1    100.0    5 
19/02/20   1:45  -67.8  -67.8  -67.8   ---    ---   0.0   ---   0.00   0.0   ---  -67.7    ---    ---  1018.8  0.04 33.88   0.299   0.000   21.7    43    8.5   20.5   8.21  .0744    117    1    100.0    5 
19/02/20   1:50    ---    ---    ---   ---    ---   0.0   ---   0.00   0.0   ---    ---    ---    ---  1018.8  0.03  9.44     ---     ---   21.6    43    8.5   20.4   8.21  .0744    117    1    100.0    5 
19/02/20   1:55    ---  -67.8  -67.8   ---    ---   0.0   ---   0.00   0.0   ---    ---    ---    ---  1018.9  0.00  0.09     ---     ---   21.6    43    8.5   20.4   8.21  .0744    117    1    100.0    5 
19/02/20   2:00    ---    ---    ---   ---    ---   0.0   ---   0.00   0.0   ---    ---    ---    ---  1019.1  0.00  0.05     ---     ---   21.6    43    8.4   20.3   8.22  .0744    117    1    100.0    5 
19/02/20   2:05    ---    ---    ---   ---    ---   0.0   ---   0.00   0.0   ---    ---    ---    ---  1019.0  0.00  0.04     ---     ---   21.6    43    8.4   20.3   8.22  .0744    117    1    100.0    5 
19/02/20   2:10    ---    ---    ---   ---    ---   0.0   ---   0.00   0.0   ---    ---    ---    ---  1019.1  0.00  0.00     ---     ---   21.6    43    8.4   20.3   8.22  .0744    117    1    100.0    5 
19/02/20   2:15    ---    ---    ---   ---    ---   0.0   ---   0.00   0.0   ---    ---    ---    ---  1019.2  0.00  0.00     ---     ---   21.5    42    8.0   20.2   8.04  .0745    117    1    100.0    5 
19/02/20   2:20    ---    ---    ---   ---    ---   0.0   ---   0.00   0.0   ---    ---    ---    ---  1019.3  0.00  0.00     ---     ---   21.5    42    8.0   20.2   8.04  .0745    116    1    100.0    5 
19/02/20   2:25    ---    ---    ---   ---    ---   0.0   ---   0.00   0.0   ---    ---    ---    ---  1019.3  0.02  0.26     ---     ---   21.4    42    8.0   20.2   8.04  .0745    116    1    100.0    5 
19/02/20   2:30  -67.8  -67.8  -67.8   ---    ---   0.0   ---   0.00   0.0   ---  -67.7    ---    ---  1019.4  0.02  5.24   0.299   0.000   21.4    42    7.9   20.1   8.04  .0745    115    1    100.0    5 
19/02/20   2:35  -67.8  -67.8  -67.8   ---    ---   0.0   ---   0.00   0.0   ---  -67.7    ---    ---  1019.5  0.00  0.09   0.299   0.000   21.4    42    7.9   20.1   8.04  .0745    117    1    100.0    5 
19/02/20   2:40  -67.8  -67.8  -67.8   ---    ---   0.0   ---   0.00   0.0   ---  -67.7    ---    ---  1019.5  0.00  0.05   0.299   0.000   21.3    42    7.9   20.0   8.04  .0745    115    1    100.0    5 
19/02/20   2:45    ---  -67.8  -67.8   ---    ---   0.0   ---   0.00   0.0   ---    ---    ---    ---  1019.5  0.00  0.04     ---     ---   21.3    42    7.9   20.0   8.04  .0745    117    1    100.0    5 
19/02/20   2:50  -67.8  -67.8  -67.8   ---    ---   0.0   ---   0.00   0.0   ---  -67.7    ---    ---  1019.4  0.00  0.00   0.299   0.000   21.3    42    7.8   19.9   8.04  .0746    117    1    100.0    5 
19/02/20   2:55    ---  -67.8  -67.8   ---    ---   0.0   ---   0.00   0.0   ---    ---    ---    ---  1019.5  0.00  0.00     ---     ---   21.3    42    7.8   19.9   8.04  .0746    117    1    100.0    5 
19/02/20   3:00    ---  -67.8  -67.8   ---    ---   0.0   ---   0.00   0.0   ---    ---    ---    ---  1019.5  0.00  0.00     ---     ---   21.2    42    7.8   19.9   8.05  .0746    117    1    100.0    5 
19/02/20   3:05    ---  -67.8  -67.8   ---    ---   0.0   ---   0.00   0.0   ---    ---    ---    ---  1019.5  0.00  0.00     ---     ---   21.2    42    7.7   19.8   8.05  .0746    117    1    100.0    5 
19/02/20   3:10    ---  -67.8  -67.8   ---    ---   0.0   ---   0.00   0.0   ---    ---    ---    ---  1019.4  0.00  0.00     ---     ---   21.2    42    7.7   19.8   8.05  .0746    117    1    100.0    5 
19/02/20   3:15    ---    ---    ---   ---    ---   0.0   ---   0.00   0.0   ---    ---    ---    ---  1019.5  0.00  0.00     ---     ---   21.2    42    7.7   19.8   8.05  .0746    117    1    100.0    5 
19/02/20   3:20    ---    ---    ---   ---    ---   0.0   ---   0.00   0.0   ---    ---    ---    ---  1019.5  0.00  0.00     ---     ---   21.1    42    7.7   19.7   8.05  .0746    118    1    100.0    5 
19/02/20   3:25    ---    ---    ---   ---    ---   0.0   ---   0.00   0.0   ---    ---    ---    ---  1019.4  0.01  0.00     ---     ---   21.1    42    7.7   19.7   8.05  .0746    117    1    100.0    5 
19/02/20   3:30    ---    ---    ---   ---    ---   0.0   ---   0.00   0.0   ---    ---    ---    ---  1019.4  0.01  0.09     ---     ---   21.1    42    7.7   19.7   8.05  .0746    116    1    100.0    5 
19/02/20   3:35    ---    ---    ---   ---    ---   0.0   ---   0.00   0.0   ---    ---    ---    ---  1019.3  0.01  0.10     ---     ---   21.1    42    7.6   19.7   8.05  .0746    117    1    100.0    5 
19/02/20   3:40    ---    ---    ---   ---    ---   0.0   ---   0.00   0.0   ---    ---    ---    ---  1019.5  0.04 64.00     ---     ---   21.0    42    7.6   19.7   8.05  .0746    116    1    100.0    5 
19/02/20   3:45    ---    ---    ---   ---    ---   0.0   ---   0.00   0.0   ---    ---    ---    ---  1019.6  0.01  0.66     ---     ---   21.0    42    7.6   19.7   8.05  .0747    113    1     99.1    5 
19/02/20   3:50    ---    ---    ---   ---    ---   0.0   ---   0.00   0.0   ---    ---    ---    ---  1019.7  0.01  0.17     ---     ---   21.0    42    7.6   19.7   8.05  .0747    116    1    100.0    5 
19/02/20   3:55    ---    ---    ---   ---    ---   0.0   ---   0.00   0.0   ---    ---    ---    ---  1019.7  0.00  0.07     ---     ---   21.0    42    7.6   19.7   8.05  .0747    117    1    100.0    5 
19/02/20   4:00    ---    ---    ---   ---    ---   0.0   ---   0.00   0.0   ---    ---    ---    ---  1019.7  0.01  0.07     ---     ---   21.0    42    7.6   19.7   8.05  .0747    117    1    100.0    5 
19/02/20   4:05    ---    ---    ---   ---    ---   0.0   ---   0.00   0.0   ---    ---    ---    ---  1019.8  0.00  0.05     ---     ---   20.9    42    7.5   19.6   8.06  .0747    117    1    100.0    5 
19/02/20   4:10    ---    ---    ---   ---    ---   0.0   ---   0.00   0.0   ---    ---    ---    ---  1019.9  0.00  0.05     ---     ---   20.9    42    7.5   19.6   8.06  .0747    117    1    100.0    5 
19/02/20   4:15    ---    ---    ---   ---    ---   0.0   ---   0.00   0.0   ---    ---    ---    ---  1020.0  0.00  0.04     ---     ---   20.9    42    7.5   19.6   8.06  .0747    117    1    100.0    5 
19/02/20   4:20    ---    ---    ---   ---    ---   0.0   ---   0.00   0.0   ---    ---    ---    ---  1020.1  0.03 44.31     ---     ---   20.8    42    7.4   19.5   8.06  .0747    117    1    100.0    5 
19/02/20   4:25    ---    ---    ---   ---    ---   0.0   ---   0.00   0.0   ---    ---    ---    ---  1020.3  0.03  3.18     ---     ---   20.8    42    7.4   19.5   8.06  .0748    118    1    100.0    5 
19/02/20   4:30    ---    ---    ---   ---    ---   0.0   ---   0.00   0.0   ---    ---    ---    ---  1020.3  0.00  0.10     ---     ---   20.8    42    7.4   19.5   8.06  .0748    116    1    100.0    5 
19/02/20   4:35    ---    ---    ---   ---    ---   0.0   ---   0.00   0.0   ---    ---    ---    ---  1020.3  0.03  2.04     ---     ---   20.7    42    7.3   19.4   8.06  .0748    117    1    100.0    5 
19/02/20   4:40    ---    ---    ---   ---    ---   0.0   ---   0.00   0.0   ---    ---    ---    ---  1020.3  0.04 15.57     ---     ---   20.7    42    7.3   19.4   8.07  .0748    117    1    100.0    5 
19/02/20   4:45    ---    ---    ---   ---    ---   0.0   ---   0.00   0.0   ---    ---    ---    ---  1020.4  0.01  0.21     ---     ---   20.7    42    7.3   19.4   8.07  .0748    117    1    100.0    5 
19/02/20   4:50    ---    ---    ---   ---    ---   0.0   ---   0.00   0.0   ---    ---    ---    ---  1020.5  0.02 25.04     ---     ---   20.7    42    7.3   19.4   8.07  .0748    117    1    100.0    5 
19/02/20   4:55    ---    ---    ---   ---    ---   0.0   ---   0.00   0.0   ---    ---    ---    ---  1020.6  0.01  0.39     ---     ---   20.6    42    7.2   19.3   8.07  .0749    116    1    100.0    5 
19/02/20   5:00    ---    ---    ---   ---    ---   0.0   ---   0.00   0.0   ---    ---    ---    ---  1020.7  0.00  0.10     ---     ---   20.6    42    7.2   19.3   8.07  .0749    116    1    100.0    5 
19/02/20   5:05    ---    ---    ---   ---    ---   0.0   ---   0.00   0.0   ---    ---    ---    ---  1020.8  0.01  0.10     ---     ---   20.6    42    7.2   19.3   8.07  .0749    116    1    100.0    5 
19/02/20   5:10    ---    ---    ---   ---    ---   0.0   ---   0.00   0.0   ---    ---    ---    ---  1020.9  0.03  1.90     ---     ---   20.6    42    7.2   19.3   8.07  .0749    116    1    100.0    5 
19/02/20   5:15    ---    ---    ---   ---    ---   0.0   ---   0.00   0.0   ---    ---    ---    ---  1020.8  0.05 15.16     ---     ---   20.6    42    7.2   19.3   8.07  .0749    117    1    100.0    5 
19/02/20   5:20    ---    ---    ---   ---    ---   0.0   ---   0.00   0.0   ---    ---    ---    ---  1020.8  0.01  0.45     ---     ---   20.6    42    7.2   19.3   8.07  .0749    117    1    100.0    5 
19/02/20   5:25    ---    ---    ---   ---    ---   0.0   ---   0.00   0.0   ---    ---    ---    ---  1020.9  0.01  0.13     ---     ---   20.6    42    7.2   19.3   8.07  .0749    117    1    100.0    5 
19/02/20   5:30    ---    ---    ---   ---    ---   0.0   ---   0.00   0.0   ---    ---    ---    ---  1021.0  0.00  0.07     ---     ---   20.6    42    7.2   19.3   8.07  .0749    117    1    100.0    5 
19/02/20   5:35    ---    ---    ---   ---    ---   0.0   ---   0.00   0.0   ---    ---    ---    ---  1021.1  0.00  0.04     ---     ---   20.6    42    7.2   19.3   8.07  .0749    116    1    100.0    5 
19/02/20   5:40    ---    ---    ---   ---    ---   0.0   ---   0.00   0.0   ---    ---    ---    ---  1021.1  0.00  0.00     ---     ---   20.6    42    7.2   19.3   8.07  .0749    117    1    100.0    5 
19/02/20   5:45    ---    ---    ---   ---    ---   0.0   ---   0.00   0.0   ---    ---    ---    ---  1021.2  0.00  0.00     ---     ---   20.6    42    7.2   19.4   8.07  .0749    117    1    100.0    5 
19/02/20   5:50    ---    ---    ---   ---    ---   0.0   ---   0.00   0.0   ---    ---    ---    ---  1021.3  0.00  0.00     ---     ---   20.6    42    7.2   19.4   8.07  .0749    116    1    100.0    5 
19/02/20   5:55    ---    ---    ---   ---    ---   0.0   ---   0.00   0.0   ---    ---    ---    ---  1021.4  0.00  0.00     ---     ---   20.6    42    7.2   19.4   8.07  .0749    117    1    100.0    5 
19/02/20   6:00    ---    ---    ---   ---    ---   0.0   ---   0.00   0.0   ---    ---    ---    ---  1021.4  0.00  0.00     ---     ---   20.6    42    7.2   19.4   8.07  .0749    114    1    100.0    5 
19/02/20   6:05    ---    ---    ---   ---    ---   0.0   ---   0.00   0.0   ---    ---    ---    ---  1021.5  0.00  0.00     ---     ---   20.6    42    7.2   19.4   8.07  .0749    117    1    100.0    5 
19/02/20   6:10    ---    ---    ---   ---    ---   0.0   ---   0.00   0.0   ---    ---    ---    ---  1021.6  0.00  0.00     ---     ---   20.7    42    7.3   19.4   8.07  .0749    116    1    100.0    5 
19/02/20   6:15    ---    ---    ---   ---    ---   0.0   ---   0.00   0.0   ---    ---    ---    ---  1021.5  0.00  0.00     ---     ---   20.7    42    7.3   19.4   8.07  .0749    115    1    100.0    5 
19/02/20   6:20    ---    ---    ---   ---    ---   0.0   ---   0.00   0.0   ---    ---    ---    ---  1021.6  0.00  0.00     ---     ---   20.7    42    7.3   19.4   8.07  .0749    117    1    100.0    5 
19/02/20   6:25    ---    ---    ---   ---    ---   0.0   ---   0.00   0.0   ---    ---    ---    ---  1021.6  0.00  0.00     ---     ---   20.7    42    7.3   19.4   8.06  .0749    117    1    100.0    5 
19/02/20   6:30    ---    ---    ---   ---    ---   0.0   ---   0.00   0.0   ---    ---    ---    ---  1021.6  0.00  0.00     ---     ---   20.7    42    7.3   19.4   8.06  .0749    117    1    100.0    5 
19/02/20   6:35    ---    ---    ---   ---    ---   0.0   ---   0.00   0.0   ---    ---    ---    ---  1021.6  0.00  0.00     ---     ---   20.7    42    7.3   19.4   8.06  .0749    117    1    100.0    5 
19/02/20   6:40    ---    ---    ---   ---    ---   0.0   ---   0.00   0.0   ---    ---    ---    ---  1021.7  0.00  0.00     ---     ---   20.8    42    7.4   19.5   8.06  .0749    116    1    100.0    5 
19/02/20   6:45    ---    ---    ---   ---    ---   0.0   ---   0.00   0.0   ---    ---    ---    ---  1021.7  0.00  0.00     ---     ---   20.8    42    7.4   19.5   8.06  .0749    114    1    100.0    5 
19/02/20   6:50    ---    ---    ---   ---    ---   0.0   ---   0.00   0.0   ---    ---    ---    ---  1021.6  0.00  0.00     ---     ---   20.8    42    7.4   19.5   8.06  .0749    117    1    100.0    5 
19/02/20   6:55    ---    ---    ---   ---    ---   0.0   ---   0.00   0.0   ---    ---    ---    ---  1021.7  0.00  0.00     ---     ---   20.8    42    7.4   19.5   8.06  .0749    117    1    100.0    5 
19/02/20   7:00    ---    ---    ---   ---    ---   0.0   ---   0.00   0.0   ---    ---    ---    ---  1021.7  0.00  0.00     ---     ---   20.8    42    7.4   19.5   8.06  .0749    117    1    100.0    5 
19/02/20   7:05    ---    ---    ---   ---    ---   0.0   ---   0.00   0.0   ---    ---    ---    ---  1021.8  0.00  0.00     ---     ---   20.8    42    7.4   19.5   8.06  .0749    117    1    100.0    5 
19/02/20   7:10    ---    ---    ---   ---    ---   0.0   ---   0.00   0.0   ---    ---    ---    ---  1021.8  0.00  0.00     ---     ---   20.9    42    7.5   19.6   8.06  .0748    117    1    100.0    5 
19/02/20   7:15    ---    ---    ---   ---    ---   0.0   ---   0.00   0.0   ---    ---    ---    ---  1021.9  0.00  0.00     ---     ---   20.9    42    7.5   19.6   8.06  .0748    117    1    100.0    5 
19/02/20   7:20    ---    ---    ---   ---    ---   0.0   ---   0.00   0.0   ---    ---    ---    ---  1021.9  0.00  0.00     ---     ---   20.9    42    7.5   19.6   8.06  .0748    117    1    100.0    5 
19/02/20   7:25    ---    ---    ---   ---    ---   0.0   ---   0.00   0.0   ---    ---    ---    ---  1021.9  0.00  0.00     ---     ---   20.9    43    7.9   19.7   8.25  .0748    116    1    100.0    5 
19/02/20   7:30    ---    ---    ---   ---    ---   0.0   ---   0.00   0.0   ---    ---    ---    ---  1021.9  0.00  0.00     ---     ---   21.0    43    7.9   19.7   8.25  .0748    117    1    100.0    5 
19/02/20   7:35    ---    ---    ---   ---    ---   0.0   ---   0.00   0.0   ---    ---    ---    ---  1022.0  0.00  0.00     ---     ---   21.1    43    8.0   19.7   8.25  .0748    116    1    100.0    5 
19/02/20   7:40    ---    ---    ---   ---    ---   0.0   ---   0.00   0.0   ---    ---    ---    ---  1022.0  0.00  0.00     ---     ---   21.1    43    8.0   19.7   8.25  .0748    117    1    100.0    5 
19/02/20   7:45    ---    ---    ---   ---    ---   0.0   ---   0.00   0.0   ---    ---    ---    ---  1022.1  0.00  0.00     ---     ---   21.1    43    8.0   19.8   8.25  .0748    116    1    100.0    5 
19/02/20   7:50    ---    ---    ---   ---    ---   0.0   ---   0.00   0.0   ---    ---    ---    ---  1022.2  0.00  0.00     ---     ---   21.1    43    8.0   19.8   8.25  .0748    116    1    100.0    5 
19/02/20   7:55  -67.8  -67.8  -67.8   ---    ---   0.0   ---   0.00   0.0   ---  -67.7    ---    ---  1022.3  0.00  0.00   0.299   0.000   21.2    43    8.1   19.8   8.25  .0748    117    1    100.0    5 
19/02/20   8:00  -67.8  -67.8  -67.8   ---    ---   0.0   ---   0.00   0.0   ---  -67.7    ---    ---  1022.3  0.00  0.00   0.299   0.000   21.2    43    8.1   19.8   8.25  .0748    117    1    100.0    5 
19/02/20   8:05  -67.8  -67.8  -67.8   ---    ---   0.0   ---   0.00   0.0   ---  -67.7    ---    ---  1022.4  0.00  0.00   0.299   0.000   21.2    43    8.1   19.9   8.24  .0748    116    1    100.0    5 
19/02/20   8:10  -67.8  -67.8  -67.8   ---    ---   0.0   ---   0.00   0.0   ---  -67.7    ---    ---  1022.4  0.00  0.00   0.299   0.000   21.3    43    8.2   20.0   8.24  .0748    115    1    100.0    5 
19/02/20   8:15  -67.8  -67.8  -67.8   ---    ---   0.0   ---   0.00   0.0   ---  -67.7    ---    ---  1022.3  0.00  0.00   0.299   0.000   21.3    43    8.2   20.0   8.24  .0747    114    1    100.0    5 
19/02/20   8:20  -67.8  -67.8  -67.8   ---    ---   0.0   ---   0.00   0.0   ---  -67.7    ---    ---  1022.3  0.00  0.00   0.299   0.000   21.3    44    8.6   20.1   8.34  .0747    117    1    100.0    5 
19/02/20   8:25  -67.8  -67.8  -67.8   ---    ---   0.0   ---   0.00   0.0   ---  -67.7    ---    ---  1022.3  0.00  0.00   0.299   0.000   21.4    44    8.6   20.2   8.34  .0747    117    1    100.0    5 
19/02/20   8:30  -67.8  -67.8  -67.8   ---    ---   0.0   ---   0.00   0.0   ---  -67.7    ---    ---  1022.3  0.00  0.00   0.299   0.000   21.4    44    8.7   20.3   8.34  .0747    115    1    100.0    5 
19/02/20   8:35  -67.8  -67.8  -67.8   ---    ---   0.0   ---   0.00   0.0   ---  -67.7    ---    ---  1022.4  0.00  0.00   0.299   0.000   21.5    44    8.7   20.3   8.34  .0747    116    1    100.0    5 
19/02/20   8:40  -67.8  -67.8  -67.8   ---    ---   0.0   ---   0.00   0.0   ---  -67.7    ---    ---  1022.5  0.00  0.00   0.299   0.000   21.6    43    8.4   20.3   8.22  .0747    117    1    100.0    5 
19/02/20   8:45  -67.8  -67.8  -67.8   ---    ---   0.0   ---   0.00   0.0   ---  -67.7    ---    ---  1022.5  0.01  0.00   0.299   0.000   21.6    43    8.5   20.4   8.21  .0747    118    1    100.0    5 
19/02/20   8:50  -67.8  -67.8  -67.8   ---    ---   0.0   ---   0.00   0.0   ---  -67.7    ---    ---  1022.4  0.01  0.22   0.299   0.000   21.6    43    8.5   20.4   8.21  .0747    117    1    100.0    5 
19/02/20   8:55  -67.8  -67.8  -67.8   ---    ---   0.0   ---   0.00   0.0   ---  -67.7    ---    ---  1022.5  0.00  0.07   0.299   0.000   21.7    43    8.5   20.5   8.21  .0746    116    1    100.0    5 
19/02/20   9:00  -67.8  -67.8  -67.8   ---    ---   0.0   ---   0.00   0.0   ---  -67.7    ---    ---  1022.5  0.00  0.04   0.299   0.000   21.7    43    8.6   20.6   8.21  .0746    116    1    100.0    5 
19/02/20   9:05  -67.8  -67.8  -67.8   ---    ---   0.0   ---   0.00   0.0   ---  -67.7    ---    ---  1022.5  0.00  0.00   0.299   0.000   21.8    43    8.6   20.7   8.20  .0746    117    1    100.0    5 
19/02/20   9:10  -67.8  -67.8  -67.8   ---    ---   0.0   ---   0.00   0.0   ---  -67.7    ---    ---  1022.5  0.01  0.00   0.299   0.000   21.8    43    8.7   20.8   8.20  .0746    116    1    100.0    5 
19/02/20   9:15  -67.8  -67.8  -67.8   ---    ---   0.0   ---   0.00   0.0   ---  -67.7    ---    ---  1022.4  0.00  0.00   0.299   0.000   21.9    43    8.7   20.8   8.19  .0746    117    1    100.0    5 
19/02/20   9:20  -67.8  -67.8  -67.8   ---    ---   0.0   ---   0.00   0.0   ---  -67.7    ---    ---  1022.5  0.00  0.00   0.299   0.000   21.9    43    8.8   20.9   8.19  .0746    116    1    100.0    5 
19/02/20   9:25  -67.8  -67.8  -67.8   ---    ---   0.0   ---   0.00   0.0   ---  -67.7    ---    ---  1022.5  0.00  0.00   0.299   0.000   22.0    43    8.8   21.0   8.19  .0745    117    1    100.0    5 
19/02/20   9:30  -67.8  -67.8  -67.8   ---    ---   0.0   ---   0.00   0.0   ---  -67.7    ---    ---  1022.4  0.00  0.00   0.299   0.000   22.0    43    8.8   21.0   8.19  .0745    116    1    100.0    5 
19/02/20   9:35  -67.8  -67.8  -67.8   ---    ---   0.0   ---   0.00   0.0   ---  -67.7    ---    ---  1022.5  0.00  0.00   0.299   0.000   22.1    43    8.9   21.1   8.18  .0745    117    1    100.0    5 
19/02/20   9:40  -67.8  -67.8  -67.8   ---    ---   0.0   ---   0.00   0.0   ---  -67.7    ---    ---  1022.5  0.00  0.00   0.299   0.000   22.1    43    8.9   21.1   8.18  .0745    116    1    100.0    5 
19/02/20   9:45  -67.8  -67.8  -67.8   ---    ---   0.0   ---   0.00   0.0   ---  -67.7    ---    ---  1022.5  0.03 16.00   0.299   0.000   22.1    43    8.9   21.1   8.18  .0745    116    1    100.0    5 
19/02/20   9:50  -67.8  -67.8  -67.8   ---    ---   0.0   ---   0.00   0.0   ---  -67.7    ---    ---  1022.5  0.03 27.43   0.299   0.000   22.1    43    8.9   21.1   8.18  .0745    118    1    100.0    5 
19/02/20   9:55  -67.8  -67.8  -67.8   ---    ---   0.0   ---   0.00   0.0   ---  -67.7    ---    ---  1022.5  0.01  0.39   0.299   0.000   22.1    43    8.9   21.2   8.18  .0745    117    1    100.0    5 
19/02/20  10:00  -67.8  -67.8  -67.8   ---    ---   0.0   ---   0.00   0.0   ---  -67.7    ---    ---  1022.5  0.00  0.06   0.299   0.000   22.1    43    8.9   21.2   8.18  .0745    117    1    100.0    5 
19/02/20  10:05  -67.8  -67.8  -67.8   ---    ---   0.0   ---   0.00   0.0   ---  -67.7    ---    ---  1022.5  0.01  0.06   0.299   0.000   22.1    44    9.2   21.1   8.32  .0745    117    1    100.0    5 
19/02/20  10:10  -67.8  -67.8  -67.8   ---    ---   0.0   ---   0.00   0.0   ---  -67.7    ---    ---  1022.5  0.05 16.94   0.299   0.000   22.1    44    9.2   21.1   8.32  .0745    116    1    100.0    5 
19/02/20  10:15  -67.8  -67.8  -67.8   ---    ---   0.0   ---   0.00   0.0   ---  -67.7    ---    ---  1022.6  0.02  1.03   0.299   0.000   22.1    44    9.3   21.2   8.31  .0745    116    1    100.0    5 
19/02/20  10:20  -67.8  -67.8  -67.8   ---    ---   0.0   ---   0.00   0.0   ---  -67.7    ---    ---  1022.5  0.01  0.15   0.299   0.000   22.1    44    9.3   21.2   8.31  .0745    116    1    100.0    5 
19/02/20  10:25  -67.8  -67.8  -67.8   ---    ---   0.0   ---   0.00   0.0   ---  -67.7    ---    ---  1022.6  0.05 64.00   0.299   0.000   22.1    44    9.3   21.2   8.31  .0745    117    1    100.0    5 
19/02/20  10:30  -67.8  -67.8  -67.8   ---    ---   0.0   ---   0.00   0.0   ---  -67.7    ---    ---  1022.7  0.00  0.12   0.299   0.000   22.1    43    8.9   21.2   8.18  .0745    116    1    100.0    5 
19/02/20  10:35  -67.8  -67.8  -67.8   ---    ---   0.0   ---   0.00   0.0   ---  -67.7    ---    ---  1022.6  0.02  0.55   0.299   0.000   22.1    43    8.9   21.1   8.18  .0745    117    1    100.0    5 
19/02/20  10:40    ---  -67.8  -67.8   ---    ---   0.0   ---   0.00   0.0   ---    ---    ---    ---  1022.6  0.39 82.29     ---     ---   22.1    43    8.9   21.1   8.18  .0745    117    1    100.0    5 
19/02/20  10:45    ---    ---    ---   ---    ---   0.0   ---   0.00   0.0   ---    ---    ---    ---  1022.6  0.27 82.29     ---     ---   22.1    43    8.9   21.1   8.18  .0745    116    1    100.0    5 
19/02/20  10:50    ---    ---    ---   ---    ---   0.0   ---   0.00   0.0   ---    ---    ---    ---  1022.7  0.28 82.29     ---     ---   22.1    43    8.9   21.1   8.18  .0745    117    1    100.0    5 
19/02/20  10:55    ---    ---    ---   ---    ---   0.0   ---   0.00   0.0   ---    ---    ---    ---  1022.8  0.24 64.00     ---     ---   22.1    43    8.9   21.1   8.18  .0745    117    1    100.0    5 
19/02/20  11:00    ---    ---    ---   ---    ---   0.0   ---   0.00   0.0   ---    ---    ---    ---  1022.8  0.16 32.00     ---     ---   22.0    43    8.8   21.0   8.19  .0746    117    1    100.0    5 
19/02/20  11:05    ---    ---    ---   ---    ---   0.0   ---   0.00   0.0   ---    ---    ---    ---  1022.7  0.08 16.46     ---     ---   22.0    43    8.8   21.0   8.19  .0746    117    1    100.0    5 
19/02/20  11:10    ---    ---    ---   ---    ---   0.0   ---   0.00   0.0   ---    ---    ---    ---  1022.6  0.06 41.14     ---     ---   22.0    43    8.8   21.0   8.19  .0746    117    1    100.0    5 
19/02/20  11:15    ---    ---    ---   ---    ---   0.0   ---   0.00   0.0   ---    ---    ---    ---  1022.6  0.03  8.60     ---     ---   22.0    43    8.8   21.0   8.19  .0746    117    1    100.0    5 
19/02/20  11:20    ---    ---    ---   ---    ---   0.0   ---   0.00   0.0   ---    ---    ---    ---  1022.6  0.13 82.29     ---     ---   21.9    43    8.8   20.9   8.19  .0746    116    1    100.0    5 
19/02/20  11:25    ---    ---    ---   ---    ---   0.0   ---   0.00   0.0   ---    ---    ---    ---  1022.7  0.09 36.00     ---     ---   21.9    43    8.7   20.8   8.19  .0746    117    1    100.0    5 
19/02/20  11:30    ---    ---    ---   ---    ---   0.0   ---   0.00   0.0   ---    ---    ---    ---  1022.7  0.16 64.00     ---     ---   21.9    43    8.7   20.8   8.19  .0746    116    1    100.0    5 
19/02/20  11:35    ---    ---    ---   ---    ---   0.0   ---   0.00   0.0   ---    ---    ---    ---  1022.7  0.08 19.20     ---     ---   21.9    43    8.7   20.8   8.19  .0746    117    1    100.0    5 
19/02/20  11:40    ---    ---    ---   ---    ---   0.0   ---   0.00   0.0   ---    ---    ---    ---  1022.6  0.02  1.68     ---     ---   21.9    42    8.4   20.8   8.02  .0746    115    1    100.0    5 
19/02/20  11:45    ---    ---    ---   ---    ---   0.0   ---   0.00   0.0   ---    ---    ---    ---  1022.6  0.03  0.91     ---     ---   21.8    42    8.3   20.7   8.02  .0746    117    1    100.0    5 
19/02/20  11:50    ---    ---    ---   ---    ---   0.0   ---   0.00   0.0   ---    ---    ---    ---  1022.5  0.00  0.11     ---     ---   21.8    42    8.3   20.7   8.02  .0746    117    1    100.0    5 
19/02/20  11:55    ---    ---    ---   ---    ---   0.0   ---   0.00   0.0   ---    ---    ---    ---  1022.5  0.00  0.06     ---     ---   21.8    42    8.3   20.7   8.02  .0746    116    1    100.0    5 
19/02/20  12:00    ---    ---    ---   ---    ---   0.0   ---   0.00   0.0   ---    ---    ---    ---  1022.4  0.00  0.04     ---     ---   21.8    42    8.3   20.6   8.03  .0746    118    1    100.0    5 
19/02/20  12:05    ---    ---    ---   ---    ---   0.0   ---   0.00   0.0   ---    ---    ---    ---  1022.3  0.00  0.00     ---     ---   21.8    42    8.3   20.6   8.03  .0746    116    1    100.0    5 
19/02/20  12:10    ---    ---    ---   ---    ---   0.0   ---   0.00   0.0   ---    ---    ---    ---  1022.2  0.00  0.00     ---     ---   21.8    42    8.3   20.7   8.02  .0746    117    1    100.0    5 
19/02/20  12:15    ---    ---    ---   ---    ---   0.0   ---   0.00   0.0   ---    ---    ---    ---  1022.1  0.00  0.00     ---     ---   21.8    42    8.3   20.6   8.03  .0746    116    1    100.0    5 
19/02/20  12:20    ---    ---    ---   ---    ---   0.0   ---   0.00   0.0   ---    ---    ---    ---  1022.1  0.00  0.00     ---     ---   21.8    42    8.3   20.6   8.03  .0746    117    1    100.0    5 
19/02/20  12:25    ---    ---    ---   ---    ---   0.0   ---   0.00   0.0   ---    ---    ---    ---  1022.1  0.01  0.00     ---     ---   21.8    42    8.3   20.6   8.03  .0746    115    1    100.0    5 
19/02/20  12:30    ---    ---    ---   ---    ---   0.0   ---   0.00   0.0   ---    ---    ---    ---  1022.1  0.00  0.00     ---     ---   21.7    42    8.2   20.5   8.03  .0746    117    1    100.0    5 
19/02/20  12:35    ---    ---    ---   ---    ---   0.0   ---   0.00   0.0   ---    ---    ---    ---  1021.8  0.00  0.00     ---     ---   21.7    42    8.2   20.5   8.03  .0746    116    1    100.0    5 
19/02/20  12:40    ---    ---    ---   ---    ---   0.0   ---   0.00   0.0   ---    ---    ---    ---  1021.8  0.00  0.00     ---     ---   21.7    42    8.2   20.4   8.03  .0746    117    1    100.0    5 
19/02/20  12:45    ---    ---    ---   ---    ---   0.0   ---   0.00   0.0   ---    ---    ---    ---  1021.6  0.00  0.00     ---     ---   21.7    42    8.2   20.4   8.03  .0746    117    1    100.0    5 
19/02/20  12:50    ---    ---    ---   ---    ---   0.0   ---   0.00   0.0   ---    ---    ---    ---  1021.6  0.00  0.00     ---     ---   21.7    42    8.2   20.4   8.03  .0746    116    1    100.0    5 
19/02/20  12:55    ---    ---    ---   ---    ---   0.0   ---   0.00   0.0   ---    ---    ---    ---  1021.6  0.00  0.00     ---     ---   21.6    42    8.1   20.4   8.03  .0746    117    1    100.0    5 
19/02/20  13:00    ---    ---    ---   ---    ---   0.0   ---   0.00   0.0   ---    ---    ---    ---  1021.6  0.00  0.00     ---     ---   21.6    42    8.1   20.4   8.03  .0746    118    1    100.0    5 
19/02/20  13:05    ---    ---    ---   ---    ---   0.0   ---   0.00   0.0   ---    ---    ---    ---  1021.5  0.00  0.00     ---     ---   21.6    42    8.1   20.4   8.03  .0746    116    1    100.0    5 
19/02/20  13:10    ---    ---    ---   ---    ---   0.0   ---   0.00   0.0   ---    ---    ---    ---  1021.4  0.00  0.00     ---     ---   21.6    42    8.1   20.3   8.03  .0746    116    1    100.0    5 
19/02/20  13:15    ---    ---    ---   ---    ---   0.0   ---   0.00   0.0   ---    ---    ---    ---  1021.4  0.00  0.00     ---     ---   21.6    42    8.1   20.3   8.03  .0746    116    1    100.0    5 
19/02/20  13:20    ---    ---    ---   ---    ---   0.0   ---   0.00   0.0   ---    ---    ---    ---  1021.2  0.00  0.00     ---     ---   21.6    42    8.1   20.3   8.03  .0746    117    1    100.0    5 
19/02/20  13:25    ---    ---    ---   ---    ---   0.0   ---   0.00   0.0   ---    ---    ---    ---  1021.1  0.00  0.00     ---     ---   21.6    42    8.1   20.3   8.03  .0746    114    1    100.0    5 
19/02/20  13:30    ---    ---    ---   ---    ---   0.0   ---   0.00   0.0   ---    ---    ---    ---  1021.1  0.00  0.00     ---     ---   21.5    42    8.0   20.2   8.04  .0746    117    1    100.0    5 
19/02/20  13:35    ---    ---    ---   ---    ---   0.0   ---   0.00   0.0   ---    ---    ---    ---  1021.0  0.00  0.00     ---     ---   21.5    42    8.0   20.2   8.04  .0746    117    1    100.0    5 
19/02/20  13:40    ---    ---    ---   ---    ---   0.0   ---   0.00   0.0   ---    ---    ---    ---  1020.9  0.00  0.00     ---     ---   21.5    42    8.0   20.2   8.04  .0746    117    1    100.0    5 
19/02/20  13:45    ---    ---    ---   ---    ---   0.0   ---   0.00   0.0   ---    ---    ---    ---  1020.8  0.00  0.00     ---     ---   21.4    42    8.0   20.2   8.04  .0746    117    1    100.0    5 
19/02/20  13:50    ---    ---    ---   ---    ---   0.0   ---   0.00   0.0   ---    ---    ---    ---  1020.8  0.00  0.00     ---     ---   21.4    42    8.0   20.2   8.04  .0746    115    1    100.0    5 
19/02/20  13:55    ---    ---    ---   ---    ---   0.0   ---   0.00   0.0   ---    ---    ---    ---  1020.7  0.00  0.00     ---     ---   21.4    42    7.9   20.1   8.04  .0746    117    1    100.0    5 
19/02/20  14:00    ---    ---    ---   ---    ---   0.0   ---   0.00   0.0   ---    ---    ---    ---  1020.6  0.00  0.00     ---     ---   21.4    42    7.9   20.1   8.04  .0746    117    1    100.0    5 
19/02/20  14:05    ---    ---    ---   ---    ---   0.0   ---   0.00   0.0   ---    ---    ---    ---  1020.5  0.00  0.00     ---     ---   21.4    42    7.9   20.1   8.04  .0746    116    1    100.0    5 
19/02/20  14:10    ---    ---    ---   ---    ---   0.0   ---   0.00   0.0   ---    ---    ---    ---  1020.4  0.00  0.00     ---     ---   21.3    42    7.9   20.0   8.04  .0746    117    1    100.0    5 
19/02/20  14:15    ---    ---    ---   ---    ---   0.0   ---   0.00   0.0   ---    ---    ---    ---  1020.3  0.00  0.00     ---     ---   21.3    42    7.9   20.0   8.04  .0746    117    1    100.0    5 
19/02/20  14:20    ---    ---    ---   ---    ---   0.0   ---   0.00   0.0   ---    ---    ---    ---  1020.3  0.00  0.00     ---     ---   21.3    43    8.2   20.1   8.23  .0746    117    1    100.0    5 
19/02/20  14:25    ---    ---    ---   ---    ---   0.0   ---   0.00   0.0   ---    ---    ---    ---  1020.2  0.00  0.00     ---     ---   21.3    42    7.9   20.0   8.04  .0746    116    1    100.0    5 
19/02/20  14:30    ---    ---    ---   ---    ---   0.0   ---   0.00   0.0   ---    ---    ---    ---  1020.2  0.00  0.00     ---     ---   21.3    43    8.2   20.0   8.24  .0746    114    1    100.0    5 
19/02/20  14:35    ---    ---    ---   ---    ---   0.0   ---   0.00   0.0   ---    ---    ---    ---  1020.2  0.00  0.00     ---     ---   21.3    43    8.2   20.0   8.24  .0746    117    1    100.0    5 
19/02/20  14:40    ---    ---    ---   ---    ---   0.0   ---   0.00   0.0   ---    ---    ---    ---  1020.1  0.00  0.00     ---     ---   21.3    43    8.2   20.0   8.24  .0746    117    1    100.0    5 
19/02/20  14:45    ---    ---    ---   ---    ---   0.0   ---   0.00   0.0   ---    ---    ---    ---  1020.0  0.00  0.00     ---     ---   21.2    43    8.1   19.9   8.24  .0746    116    1    100.0    5 
19/02/20  14:50    ---    ---    ---   ---    ---   0.0   ---   0.00   0.0   ---    ---    ---    ---  1019.9  0.00  0.00     ---     ---   21.2    43    8.1   19.9   8.24  .0746    117    1    100.0    5 
19/02/20  14:55    ---    ---    ---   ---    ---   0.0   ---   0.00   0.0   ---    ---    ---    ---  1019.7  0.00  0.00     ---     ---   21.2    43    8.1   19.8   8.25  .0746    117    1    100.0    5 
19/02/20  15:00    ---    ---    ---   ---    ---   0.0   ---   0.00   0.0   ---    ---    ---    ---  1019.5  0.00  0.00     ---     ---   21.1    43    8.0   19.8   8.25  .0746    117    1    100.0    5 
19/02/20  15:05    ---    ---    ---   ---    ---   0.0   ---   0.00   0.0   ---    ---    ---    ---  1019.4  0.00  0.00     ---     ---   21.1    43    8.0   19.8   8.25  .0746    115    1    100.0    5 
19/02/20  15:10    ---    ---    ---   ---    ---   0.0   ---   0.00   0.0   ---    ---    ---    ---  1019.4  0.00  0.00     ---     ---   21.1    43    8.0   19.8   8.25  .0746    118    1    100.0    5 
19/02/20  15:15    ---    ---    ---   ---    ---   0.0   ---   0.00   0.0   ---    ---    ---    ---  1019.4  0.00  0.00     ---     ---   21.1    43    8.0   19.8   8.25  .0746    117    1    100.0    5 
19/02/20  15:20    ---    ---    ---   ---    ---   0.0   ---   0.00   0.0   ---    ---    ---    ---  1019.2  0.00  0.00     ---     ---   21.1    43    8.0   19.8   8.25  .0746    114    1    100.0    5 
19/02/20  15:25    ---    ---    ---   ---    ---   0.0   ---   0.00   0.0   ---    ---    ---    ---  1019.1  0.00  0.00     ---     ---   21.2    43    8.1   19.8   8.25  .0745    117    1    100.0    5 
19/02/20  15:30  -67.8  -67.8  -67.8   ---    ---   0.0   ---   0.00   0.0   ---  -67.7    ---    ---  1019.2  0.00  0.00   0.299   0.000   21.2    43    8.1   19.8   8.25  .0746    116    1    100.0    5 
19/02/20  15:35  -67.8  -67.8  -67.8   ---    ---   0.0   ---   0.00   0.0   ---  -67.7    ---    ---  1019.3  0.01  0.00   0.299   0.000   21.2    43    8.1   19.9   8.24  .0745    117    1    100.0    5 
19/02/20  15:40  -67.8  -67.8  -67.8   ---    ---   0.0   ---   0.00   0.0   ---  -67.7    ---    ---  1019.3  0.01  0.12   0.299   0.000   21.2    43    8.1   19.9   8.24  .0745    116    1    100.0    5 
19/02/20  15:45  -67.8  -67.8  -67.8   ---    ---   0.0   ---   0.00   0.0   ---  -67.7    ---    ---  1019.1  0.00  0.07   0.299   0.000   21.3    43    8.2   20.0   8.24  .0745    117    1    100.0    5 
19/02/20  15:50  -67.8  -67.8  -67.8   ---    ---   0.0   ---   0.00   0.0   ---  -67.7    ---    ---  1019.0  0.00  0.04   0.299   0.000   21.3    43    8.2   20.0   8.24  .0745    117    1    100.0    5 
19/02/20  15:55  -67.8  -67.8  -67.8   ---    ---   0.0   ---   0.00   0.0   ---  -67.7    ---    ---  1019.0  0.01  0.04   0.299   0.000   21.3    43    8.2   20.1   8.23  .0745    117    1    100.0    5 
19/02/20  16:00  -67.8  -67.8  -67.8   ---    ---   0.0   ---   0.00   0.0   ---  -67.7    ---    ---  1018.9  0.01  0.10   0.299   0.000   21.3    44    8.6   20.1   8.34  .0745    115    1    100.0    5 
19/02/20  16:05  -67.8  -67.8  -67.8   ---    ---   0.0   ---   0.00   0.0   ---  -67.7    ---    ---  1018.8  0.03  1.23   0.299   0.000   21.3    44    8.6   20.1   8.34  .0745    114    1    100.0    5 
19/02/20  16:10  -67.8  -67.8  -67.8   ---    ---   0.0   ---   0.00   0.0   ---  -67.7    ---    ---  1018.8  0.00  0.09   0.299   0.000   21.4    44    8.6   20.2   8.34  .0744    117    1    100.0    5 
19/02/20  16:15  -67.8  -67.8  -67.8   ---    ---   0.0   ---   0.00   0.0   ---  -67.7    ---    ---  1018.7  0.00  0.05   0.299   0.000   21.4    44    8.6   20.2   8.34  .0744    118    1    100.0    5 
19/02/20  16:20  -67.8  -67.8  -67.8   ---    ---   0.0   ---   0.00   0.0   ---  -67.7    ---    ---  1018.6  0.00  0.04   0.299   0.000   21.4    44    8.6   20.2   8.34  .0744    116    1    100.0    5 
19/02/20  16:25  -67.8  -67.8  -67.8   ---    ---   0.0   ---   0.00   0.0   ---  -67.7    ---    ---  1018.6  0.00  0.00   0.299   0.000   21.4    44    8.7   20.3   8.34  .0744    116    1    100.0    5 
19/02/20  16:30  -67.8  -67.8  -67.8   ---    ---   0.0   ---   0.00   0.0   ---  -67.7    ---    ---  1018.6  0.01  0.00   0.299   0.000   21.4    44    8.7   20.3   8.34  .0744    117    1    100.0    5 
19/02/20  16:35  -67.8  -67.8  -67.8   ---    ---   0.0   ---   0.00   0.0   ---  -67.7    ---    ---  1018.5  0.00  0.00   0.299   0.000   21.4    44    8.7   20.3   8.34  .0744    117    1    100.0    5 
19/02/20  16:40  -67.8  -67.8  -67.8   ---    ---   0.0   ---   0.00   0.0   ---  -67.7    ---    ---  1018.5  0.00  0.00   0.299   0.000   21.4    44    8.7   20.3   8.34  .0744    117    1    100.0    5 
19/02/20  16:45  -67.8  -67.8  -67.8   ---    ---   0.0   ---   0.00   0.0   ---  -67.7    ---    ---  1018.5  0.00  0.00   0.299   0.000   21.5    44    8.7   20.3   8.34  .0744    117    1    100.0    5 
19/02/20  16:50  -67.8  -67.8  -67.8   ---    ---   0.0   ---   0.00   0.0   ---  -67.7    ---    ---  1018.5  0.00  0.00   0.299   0.000   21.5    44    8.7   20.3   8.34  .0744    117    1    100.0    5 
19/02/20  16:55  -67.8  -67.8  -67.8   ---    ---   0.0   ---   0.00   0.0   ---  -67.7    ---    ---  1018.6  0.00  0.00   0.299   0.000   21.5    44    8.7   20.3   8.34  .0744    117    1    100.0    5 
19/02/20  17:00  -67.8  -67.8  -67.8   ---    ---   0.0   ---   0.00   0.0   ---  -67.7    ---    ---  1018.5  0.00  0.00   0.299   0.000   21.5    44    8.7   20.3   8.34  .0744    117    1    100.0    5 
19/02/20  17:05  -67.8  -67.8  -67.8   ---    ---   0.0   ---   0.00   0.0   ---  -67.7    ---    ---  1018.4  0.00  0.00   0.299   0.000   21.6    44    8.8   20.4   8.33  .0744    116    1    100.0    5 
19/02/20  17:10  -67.8  -67.8  -67.8   ---    ---   0.0   ---   0.00   0.0   ---  -67.7    ---    ---  1018.4  0.00  0.00   0.299   0.000   21.6    45    9.1   20.4   8.45  .0743    116    1    100.0    5 
19/02/20  17:15  -67.8  -67.8  -67.8   ---    ---   0.0   ---   0.00   0.0   ---  -67.7    ---    ---  1018.4  0.00  0.00   0.299   0.000   21.6    45    9.1   20.4   8.45  .0743    117    1    100.0    5 
19/02/20  17:20  -67.8  -67.8  -67.8   ---    ---   0.0   ---   0.00   0.0   ---  -67.7    ---    ---  1018.1  0.00  0.00   0.299   0.000   21.6    45    9.1   20.4   8.45  .0743    118    1    100.0    5 
19/02/20  17:25  -67.8  -67.8  -67.8   ---    ---   0.0   ---   0.00   0.0   ---  -67.7    ---    ---  1018.1  0.00  0.00   0.299   0.000   21.6    45    9.2   20.6   8.45  .0743    117    1    100.0    5 
19/02/20  17:30  -67.8  -67.8  -67.8   ---    ---   0.0   ---   0.00   0.0   ---  -67.7    ---    ---  1018.0  0.00  0.00   0.299   0.000   21.6    45    9.2   20.6   8.45  .0743    117    1    100.0    5 
19/02/20  17:35  -67.8  -67.8  -67.8   ---    ---   0.0   ---   0.00   0.0   ---  -67.7    ---    ---  1017.9  0.00  0.00   0.299   0.000   21.7    45    9.2   20.6   8.45  .0743    117    1    100.0    5 
19/02/20  17:40  -67.8  -67.8  -67.8   ---    ---   0.0   ---   0.00   0.0   ---  -67.7    ---    ---  1017.9  0.00  0.00   0.299   0.000   21.7    45    9.2   20.6   8.45  .0743    117    1    100.0    5 
19/02/20  17:45  -67.8  -67.8  -67.8   ---    ---   0.0   ---   0.00   0.0   ---  -67.7    ---    ---  1017.9  0.00  0.00   0.299   0.000   21.7    45    9.2   20.6   8.45  .0743    117    1    100.0    5 
19/02/20  17:50  -67.8  -67.8  -67.8   ---    ---   0.0   ---   0.00   0.0   ---  -67.7    ---    ---  1017.9  0.02 19.20   0.299   0.000   21.7    45    9.2   20.6   8.45  .0743    115    1    100.0    5 
19/02/20  17:55  -67.8  -67.8  -67.8   ---    ---   0.0   ---   0.00   0.0   ---  -67.7    ---    ---  1017.9  0.02 41.14   0.299   0.000   21.7    45    9.2   20.6   8.45  .0743    117    1    100.0    5 
19/02/20  18:00  -67.8  -67.8  -67.8   ---    ---   0.0   ---   0.00   0.0   ---  -67.7    ---    ---  1017.8  0.01  0.38   0.299   0.000   21.7    45    9.3   20.7   8.45  .0742    117    1    100.0    5 
19/02/20  18:05  -67.8  -67.8  -67.8   ---    ---   0.0   ---   0.00   0.0   ---  -67.7    ---    ---  1017.9  0.00  0.08   0.299   0.000   21.7    45    9.3   20.7   8.45  .0742    117    1    100.0    5 
19/02/20  18:10  -67.8  -67.8  -67.8   ---    ---   0.0   ---   0.00   0.0   ---  -67.7    ---    ---  1017.8  0.02  8.35   0.299   0.000   21.7    45    9.3   20.7   8.45  .0742    116    1    100.0    5 
19/02/20  18:15  -67.8  -67.8  -67.8   ---    ---   0.0   ---   0.00   0.0   ---  -67.7    ---    ---  1017.7  0.00  0.09   0.299   0.000   21.7    45    9.3   20.7   8.45  .0742    116    1    100.0    5 
19/02/20  18:20  -67.8  -67.8  -67.8   ---    ---   0.0   ---   0.00   0.0   ---  -67.7    ---    ---  1017.7  0.01  0.09   0.299   0.000   21.8    45    9.3   20.8   8.45  .0742    118    1    100.0    5 
19/02/20  18:25  -67.8  -67.8  -67.8   ---    ---   0.0   ---   0.00   0.0   ---  -67.7    ---    ---  1017.6  0.00  0.07   0.299   0.000   21.8    45    9.3   20.8   8.45  .0742    116    1    100.0    5 
19/02/20  18:30  -67.8  -67.8  -67.8   ---    ---   0.0   ---   0.00   0.0   ---  -67.7    ---    ---  1017.6  0.01  0.07   0.299   0.000   21.8    45    9.3   20.8   8.45  .0742    116    1    100.0    5 
19/02/20  18:35  -67.8  -67.8  -67.8   ---    ---   0.0   ---   0.00   0.0   ---  -67.7    ---    ---  1017.6  0.00  0.06   0.299   0.000   21.8    45    9.4   20.9   8.45  .0742    117    1    100.0    5 
19/02/20  18:40  -67.8  -67.8  -67.8   ---    ---   0.0   ---   0.00   0.0   ---  -67.7    ---    ---  1017.6  0.01  0.06   0.299   0.000   21.8    45    9.4   20.9   8.45  .0742    116    1    100.0    5 
19/02/20  18:45  -67.8  -67.8  -67.8   ---    ---   0.0   ---   0.00   0.0   ---  -67.7    ---    ---  1017.6  0.02  5.19   0.299   0.000   21.8    45    9.4   20.9   8.45  .0742    117    1    100.0    5 
19/02/20  18:50  -67.8  -67.8  -67.8   ---    ---   0.0   ---   0.00   0.0   ---  -67.7    ---    ---  1017.6  0.00  0.07   0.299   0.000   21.8    45    9.4   20.9   8.45  .0742    117    1    100.0    5 
19/02/20  18:55  -67.8  -67.8  -67.8   ---    ---   0.0   ---   0.00   0.0   ---  -67.7    ---    ---  1017.5  0.00  0.05   0.299   0.000   21.8    45    9.4   20.9   8.45  .0742    117    1    100.0    5 
19/02/20  19:00  -67.8  -67.8  -67.8   ---    ---   0.0   ---   0.00   0.0   ---  -67.7    ---    ---  1017.5  0.01  0.05   0.299   0.000   21.9    45    9.4   20.9   8.45  .0742    116    1    100.0    5 
19/02/20  19:05  -67.8  -67.8  -67.8   ---    ---   0.0   ---   0.00   0.0   ---  -67.7    ---    ---  1017.4  0.00  0.04   0.299   0.000   21.9    45    9.4   20.9   8.45  .0742    117    1    100.0    5 
19/02/20  19:10  -67.8  -67.8  -67.8   ---    ---   0.0   ---   0.00   0.0   ---  -67.7    ---    ---  1017.3  0.00  0.04   0.299   0.000   21.9    45    9.4   20.9   8.45  .0742    116    1    100.0    5 
19/02/20  19:15  -67.8  -67.8  -67.8   ---    ---   0.0   ---   0.00   0.0   ---  -67.7    ---    ---  1017.2  0.03 24.00   0.299   0.000   21.9    45    9.4   20.9   8.45  .0741    117    1    100.0    5 
19/02/20  19:20  -67.8  -67.8  -67.8   ---    ---   0.0   ---   0.00   0.0   ---  -67.7    ---    ---  1017.2  0.05 52.36   0.299   0.000   21.9    45    9.5   21.0   8.45  .0741    116    1    100.0    5 
19/02/20  19:25  -67.8  -67.8  -67.8   ---    ---   0.0   ---   0.00   0.0   ---  -67.7    ---    ---  1017.2  0.03 10.47   0.299   0.000   21.9    45    9.5   21.0   8.45  .0741    118    1    100.0    5 
19/02/20  19:30  -67.8  -67.8  -67.8   ---    ---   0.0   ---   0.00   0.0   ---  -67.7    ---    ---  1017.1  0.04 14.40   0.299   0.000   22.0    45    9.5   21.1   8.45  .0741    115    1    100.0    5 
19/02/20  19:35  -67.8  -67.8  -67.8   ---    ---   0.0   ---   0.00   0.0   ---  -67.7    ---    ---  1017.1  0.02  2.32   0.299   0.000   22.0    45    9.5   21.1   8.45  .0741    116    1    100.0    5 
19/02/20  19:40  -67.8  -67.8  -67.8   ---    ---   0.0   ---   0.00   0.0   ---  -67.7    ---    ---  1017.0  0.00  0.11   0.299   0.000   22.0    45    9.5   21.1   8.45  .0741    117    1    100.0    5 
19/02/20  19:45    ---  -67.8  -67.8   ---    ---   0.0   ---   0.00   0.0   ---    ---    ---    ---  1017.0  0.00  0.06     ---     ---   22.0    45    9.5   21.1   8.45  .0741    117    1    100.0    5 
19/02/20  19:50    ---    ---    ---   ---    ---   0.0   ---   0.00   0.0   ---    ---    ---    ---  1016.9  0.00  0.04     ---     ---   22.1    45    9.6   21.2   8.45  .0741    117    1    100.0    5 
19/02/20  19:55    ---    ---    ---   ---    ---   0.0   ---   0.00   0.0   ---    ---    ---    ---  1016.8  0.00  0.00     ---     ---   22.1    45    9.6   21.2   8.45  .0741    117    1    100.0    5 
19/02/20  20:00    ---    ---    ---   ---    ---   0.0   ---   0.00   0.0   ---    ---    ---    ---  1016.8  0.03  1.02     ---     ---   22.1    45    9.6   21.2   8.45  .0741    116    1    100.0    5 
19/02/20  20:05    ---    ---    ---   ---    ---   0.0   ---   0.00   0.0   ---    ---    ---    ---  1016.8  0.00  0.10     ---     ---   22.1    45    9.6   21.2   8.45  .0741    115    1    100.0    5 
19/02/20  20:10    ---    ---    ---   ---    ---   0.0   ---   0.00   0.0   ---    ---    ---    ---  1016.8  0.00  0.06     ---     ---   22.1    45    9.6   21.2   8.45  .0741    115    1    100.0    5 
19/02/20  20:15    ---    ---    ---   ---    ---   0.0   ---   0.00   0.0   ---    ---    ---    ---  1016.8  0.02 15.16     ---     ---   22.1    45    9.6   21.3   8.45  .0741    115    1    100.0    5 
19/02/20  20:20    ---    ---    ---   ---    ---   0.0   ---   0.00   0.0   ---    ---    ---    ---  1016.8  0.00  0.07     ---     ---   22.1    45    9.6   21.3   8.45  .0741    116    1    100.0    5 
19/02/20  20:25    ---    ---    ---   ---    ---   0.0   ---   0.00   0.0   ---    ---    ---    ---  1016.7  0.00  0.04     ---     ---   22.1    45    9.6   21.3   8.45  .0740    117    1    100.0    5 
19/02/20  20:30    ---    ---    ---   ---    ---   0.0   ---   0.00   0.0   ---    ---    ---    ---  1016.7  0.00  0.00     ---     ---   22.2    45    9.7   21.3   8.45  .0740    118    1    100.0    5 
19/02/20  20:35    ---    ---    ---   ---    ---   0.0   ---   0.00   0.0   ---    ---    ---    ---  1016.6  0.03  6.40     ---     ---   22.2    45    9.7   21.3   8.45  .0740    116    1    100.0    5 
19/02/20  20:40    ---    ---    ---   ---    ---   0.0   ---   0.00   0.0   ---    ---    ---    ---  1016.5  0.06  4.06     ---     ---   22.2    45    9.7   21.3   8.45  .0740    116    1    100.0    5 
19/02/20  20:45    ---    ---    ---   ---    ---   0.0   ---   0.00   0.0   ---    ---    ---    ---  1016.4  0.01  1.13     ---     ---   22.2    45    9.7   21.3   8.45  .0740    116    1    100.0    5 
19/02/20  20:50    ---    ---    ---   ---    ---   0.0   ---   0.00   0.0   ---    ---    ---    ---  1016.4  0.03 27.43     ---     ---   22.2    45    9.7   21.3   8.45  .0740    115    1    100.0    5 
19/02/20  20:55    ---    ---    ---   ---    ---   0.0   ---   0.00   0.0   ---    ---    ---    ---  1016.5  0.00  0.10     ---     ---   22.2    45    9.7   21.4   8.45  .0740    116    1    100.0    5 
19/02/20  21:00    ---    ---    ---   ---    ---   0.0   ---   0.00   0.0   ---    ---    ---    ---  1016.4  0.01  0.10     ---     ---   22.2    45    9.7   21.4   8.45  .0740    117    1    100.0    5 
19/02/20  21:05    ---    ---    ---   ---    ---   0.0   ---   0.00   0.0   ---    ---    ---    ---  1016.4  0.01  0.18     ---     ---   22.3    45    9.8   21.6   8.45  .0740    115    1    100.0    5 
19/02/20  21:10    ---    ---    ---   ---    ---   0.0   ---   0.00   0.0   ---    ---    ---    ---  1016.4  0.01  0.18     ---     ---   22.2    45    9.7   21.4   8.45  .0740    116    1    100.0    5 
19/02/20  21:15    ---    ---    ---   ---    ---   0.0   ---   0.00   0.0   ---    ---    ---    ---  1016.4  0.01  0.17     ---     ---   22.3    45    9.8   21.6   8.45  .0740    116    1    100.0    5 
19/02/20  21:20    ---    ---    ---   ---    ---   0.0   ---   0.00   0.0   ---    ---    ---    ---  1016.2  0.00  0.08     ---     ---   22.3    45    9.8   21.6   8.45  .0740    117    1    100.0    5 
19/02/20  21:25    ---    ---    ---   ---    ---   0.0   ---   0.00   0.0   ---    ---    ---    ---  1016.2  0.00  0.05     ---     ---   22.3    45    9.8   21.6   8.45  .0740    117    1    100.0    5 
19/02/20  21:30    ---    ---    ---   ---    ---   0.0   ---   0.00   0.0   ---    ---    ---    ---  1016.2  0.01  0.05     ---     ---   22.3    45    9.8   21.6   8.45  .0740    117    1    100.0    5 
19/02/20  21:35    ---    ---    ---   ---    ---   0.0   ---   0.00   0.0   ---    ---    ---    ---  1016.1  0.00  0.04     ---     ---   22.3    45    9.8   21.6   8.45  .0739    118    1    100.0    5 
19/02/20  21:40    ---    ---    ---   ---    ---   0.0   ---   0.00   0.0   ---    ---    ---    ---  1016.2  0.04 12.80     ---     ---   22.3    45    9.8   21.6   8.45  .0740    117    1    100.0    5 
19/02/20  21:45    ---    ---    ---   ---    ---   0.0   ---   0.00   0.0   ---    ---    ---    ---  1016.1  0.02  0.22     ---     ---   22.3    45    9.8   21.6   8.45  .0739    116    1    100.0    5 
19/02/20  21:50    ---    ---    ---   ---    ---   0.0   ---   0.00   0.0   ---    ---    ---    ---  1016.1  0.00  0.09     ---     ---   22.3    45    9.8   21.6   8.45  .0739    117    1    100.0    5 
19/02/20  21:55    ---    ---    ---   ---    ---   0.0   ---   0.00   0.0   ---    ---    ---    ---  1016.1  0.00  0.05     ---     ---   22.2    45    9.7   21.4   8.45  .0740    116    1    100.0    5 
19/02/20  22:00    ---    ---    ---   ---    ---   0.0   ---   0.00   0.0   ---    ---    ---    ---  1016.1  0.00  0.04     ---     ---   22.2    45    9.7   21.4   8.45  .0740    117    1    100.0    5 
19/02/20  22:05    ---    ---    ---   ---    ---   0.0   ---   0.00   0.0   ---    ---    ---    ---  1016.0  0.00  0.00     ---     ---   22.2    44    9.4   21.4   8.31  .0740    116    1    100.0    5 
19/02/20  22:10    ---    ---    ---   ---    ---   0.0   ---   0.00   0.0   ---    ---    ---    ---  1015.8  0.00  0.00     ---     ---   22.2    44    9.4   21.4   8.31  .0740    116    1    100.0    5 
19/02/20  22:15    ---    ---    ---   ---    ---   0.0   ---   0.00   0.0   ---    ---    ---    ---  1015.8  0.01  0.00     ---     ---   22.2    44    9.4   21.4   8.31  .0740    116    1    100.0    5 
19/02/20  22:20    ---    ---    ---   ---    ---   0.0   ---   0.00   0.0   ---    ---    ---    ---  1015.8  0.01  0.08     ---     ---   22.2    44    9.3   21.3   8.31  .0740    116    1    100.0    5 
19/02/20  22:25    ---    ---    ---   ---    ---   0.0   ---   0.00   0.0   ---    ---    ---    ---  1015.8  0.00  0.08     ---     ---   22.2    44    9.3   21.3   8.31  .0740    115    1    100.0    5 
19/02/20  22:30    ---    ---    ---   ---    ---   0.0   ---   0.00   0.0   ---    ---    ---    ---  1015.7  0.00  0.05     ---     ---   22.2    44    9.3   21.3   8.31  .0740    116    1    100.0    5 
19/02/20  22:35  -67.8  -67.8  -67.8   ---    ---   0.0   ---   0.00   0.0   ---  -67.7    ---    ---  1015.6  0.02 82.29   0.299   0.000   22.1    44    9.3   21.2   8.31  .0740    117    1    100.0    5 
19/02/20  22:40  -67.8  -67.8  -67.8   ---    ---   0.0   ---   0.00   0.0   ---  -67.7    ---    ---  1015.5  0.00  0.08   0.299   0.000   22.1    44    9.2   21.1   8.32  .0740    118    1    100.0    5 
19/02/20  22:45  -67.8  -67.8  -67.8   ---    ---   0.0   ---   0.00   0.0   ---  -67.7    ---    ---  1015.5  0.00  0.05   0.299   0.000   22.1    44    9.2   21.1   8.32  .0740    117    1    100.0    5 
19/02/20  22:50  -67.8  -67.8  -67.8   ---    ---   0.0   ---   0.00   0.0   ---  -67.7    ---    ---  1015.5  0.00  0.00   0.299   0.000   22.0    44    9.2   21.1   8.32  .0740    117    1    100.0    5 
19/02/20  22:55  -67.8  -67.8  -67.8   ---    ---   0.0   ---   0.00   0.0   ---  -67.7    ---    ---  1015.4  0.00  0.00   0.299   0.000   22.0    44    9.2   21.1   8.32  .0740    115    1    100.0    5 
19/02/20  23:00  -67.8  -67.8  -67.8   ---    ---   0.0   ---   0.00   0.0   ---  -67.7    ---    ---  1015.3  0.00  0.00   0.299   0.000   21.9    44    9.1   21.0   8.32  .0740    117    1    100.0    5 
19/02/20  23:05  -67.8  -67.8  -67.8   ---    ---   0.0   ---   0.00   0.0   ---  -67.7    ---    ---  1015.2  0.00  0.00   0.299   0.000   21.9    44    9.1   21.0   8.32  .0740    117    1    100.0    5 
19/02/20  23:10  -67.8  -67.8  -67.8   ---    ---   0.0   ---   0.00   0.0   ---  -67.7    ---    ---  1015.2  0.00  0.00   0.299   0.000   21.9    44    9.1   20.9   8.32  .0740    117    1    100.0    5 
19/02/20  23:15  -67.8  -67.8  -67.8   ---    ---   0.0   ---   0.00   0.0   ---  -67.7    ---    ---  1015.2  0.00  0.00   0.299   0.000   21.9    44    9.1   20.9   8.32  .0740    117    1    100.0    5 
19/02/20  23:20  -67.8  -67.8  -67.8   ---    ---   0.0   ---   0.00   0.0   ---  -67.7    ---    ---  1015.1  0.00  0.00   0.299   0.000   21.9    44    9.1   20.9   8.32  .0740    117    1    100.0    5 
19/02/20  23:25  -67.8  -67.8  -67.8   ---    ---   0.0   ---   0.00   0.0   ---  -67.7    ---    ---  1015.1  0.02  0.96   0.299   0.000   21.8    44    9.0   20.8   8.32  .0740    117    1    100.0    5 
19/02/20  23:30  -67.8  -67.8  -67.8   ---    ---   0.0   ---   0.00   0.0   ---  -67.7    ---    ---  1015.1  0.00  0.07   0.299   0.000   21.8    44    9.0   20.8   8.32  .0740    117    1    100.0    5 
19/02/20  23:35  -67.8  -67.8  -67.8   ---    ---   0.0   ---   0.00   0.0   ---  -67.7    ---    ---  1015.1  0.00  0.04   0.299   0.000   21.8    44    9.0   20.7   8.33  .0740    117    1    100.0    5 
19/02/20  23:40  -67.8  -67.8  -67.8   ---    ---   0.0   ---   0.00   0.0   ---  -67.7    ---    ---  1015.0  0.00  0.00   0.299   0.000   21.8    44    9.0   20.7   8.33  .0740    118    1    100.0    5 
19/02/20  23:45  -67.8  -67.8  -67.8   ---    ---   0.0   ---   0.00   0.0   ---  -67.7    ---    ---  1014.9  0.00  0.00   0.299   0.000   21.7    44    8.9   20.6   8.33  .0740    116    1    100.0    5 
19/02/20  23:50  -67.8  -67.8  -67.8   ---    ---   0.0   ---   0.00   0.0   ---  -67.7    ---    ---  1014.8  0.00  0.00   0.299   0.000   21.7    44    8.9   20.6   8.33  .0740    117    1    100.0    5 
19/02/20  23:55  -67.8  -67.8  -67.8   ---    ---   0.0   ---   0.00   0.0   ---  -67.7    ---    ---  1014.8  0.01  0.00   0.299   0.000   21.7    44    8.9   20.6   8.33  .0741    117    1    100.0    5 
20/02/20  00:00  -67.8  -67.8  -67.8   ---    ---   0.0   ---   0.00   0.0   ---  -67.7    ---    ---  1014.8  0.02  0.31   0.299   0.000   21.6    44    8.8   20.5   8.33  .0741    117    1    100.0    5 
20/02/20   0:05  -67.8  -67.8  -67.8   ---    ---   0.0   ---   0.00   0.0   ---  -67.7    ---    ---  1014.8  0.01 48.00   0.299   0.000   21.6    44    8.8   20.5   8.33  .0741    116    1    100.0    5 
20/02/20   0:10  -67.8  -67.8  -67.8   ---    ---   0.0   ---   0.00   0.0   ---  -67.7    ---    ---  1014.8  0.04 48.00   0.299   0.000   21.6    44    8.8   20.4   8.33  .0741    116    1    100.0    5 
20/02/20   0:15  -67.8  -67.8  -67.8   ---    ---   0.0   ---   0.00   0.0   ---  -67.7    ---    ---  1014.7  0.03  1.71   0.299   0.000   21.6    44    8.8   20.4   8.33  .0741    116    1    100.0    5 
20/02/20   0:20  -67.8  -67.8  -67.8   ---    ---   0.0   ---   0.00   0.0   ---  -67.7    ---    ---  1014.7  0.02  0.53   0.299   0.000   21.5    44    8.7   20.3   8.34  .0741    117    1    100.0    5 
20/02/20   0:25  -67.8  -67.8  -67.8   ---    ---   0.0   ---   0.00   0.0   ---  -67.7    ---    ---  1014.6  0.02 17.45   0.299   0.000   21.5    44    8.7   20.3   8.34  .0741    116    1    100.0    5 
20/02/20   0:30  -67.8  -67.8  -67.8   ---    ---   0.0   ---   0.00   0.0   ---  -67.7    ---    ---  1014.5  0.01  0.18   0.299   0.000   21.4    44    8.7   20.3   8.34  .0741    117    1    100.0    5 
20/02/20   0:35  -67.8  -67.8  -67.8   ---    ---   0.0   ---   0.00   0.0   ---  -67.7    ---    ---  1014.5  0.01  0.13   0.299   0.000   21.4    44    8.6   20.2   8.34  .0741    114    1    100.0    5 
20/02/20   0:40  -67.8  -67.8  -67.8   ---    ---   0.0   ---   0.00   0.0   ---  -67.7    ---    ---  1014.5  0.02  1.19   0.299   0.000   21.4    44    8.6   20.2   8.34  .0741    117    1    100.0    5 
20/02/20   0:45  -67.8  -67.8  -67.8   ---    ---   0.0   ---   0.00   0.0   ---  -67.7    ---    ---  1014.5  0.01  0.13   0.299   0.000   21.3    44    8.6   20.1   8.34  .0741    117    1    100.0    5 
20/02/20   0:50  -67.8  -67.8  -67.8   ---    ---   0.0   ---   0.00   0.0   ---  -67.7    ---    ---  1014.5  0.01  0.12   0.299   0.000   21.3    44    8.5   20.1   8.34  .0742    117    1    100.0    5 
20/02/20   0:55  -67.8  -67.8  -67.8   ---    ---   0.0   ---   0.00   0.0   ---  -67.7    ---    ---  1014.4  0.00  0.07   0.299   0.000   21.3    44    8.5   20.1   8.34  .0741    117    1    100.0    5 
20/02/20   1:00  -67.8  -67.8  -67.8   ---    ---   0.0   ---   0.00   0.0   ---  -67.7    ---    ---  1014.3  0.01  0.09   0.299   0.000   21.3    44    8.5   20.1   8.34  .0741    117    1    100.0    5 
20/02/20   1:05  -67.8  -67.8  -67.8   ---    ---   0.0   ---   0.00   0.0   ---  -67.7    ---    ---  1014.3  0.02  8.47   0.299   0.000   21.2    44    8.5   20.0   8.35  .0742    117    1    100.0    5 
20/02/20   1:10  -67.8  -67.8  -67.8   ---    ---   0.0   ---   0.00   0.0   ---  -67.7    ---    ---  1014.3  0.03 14.40   0.299   0.000   21.2    44    8.5   20.0   8.35  .0742    117    1    100.0    5 
20/02/20   1:15  -67.8  -67.8  -67.8   ---    ---   0.0   ---   0.00   0.0   ---  -67.7    ---    ---  1014.4  0.00  0.07   0.299   0.000   21.2    44    8.4   19.9   8.35  .0742    117    1    100.0    5 
20/02/20   1:20  -67.8  -67.8  -67.8   ---    ---   0.0   ---   0.00   0.0   ---  -67.7    ---    ---  1014.3  0.00  0.04   0.299   0.000   21.1    44    8.4   19.8   8.35  .0742    117    1    100.0    5 
20/02/20   1:25  -67.8  -67.8  -67.8   ---    ---   0.0   ---   0.00   0.0   ---  -67.7    ---    ---  1014.1  0.01  0.04   0.299   0.000   21.1    45    8.7   19.9   8.45  .0742    117    1    100.0    5 
20/02/20   1:30    ---  -67.8  -67.8   ---    ---   0.0   ---   0.00   0.0   ---    ---    ---    ---  1014.1  0.03 16.46     ---     ---   21.1    45    8.7   19.8   8.45  .0742    116    1    100.0    5 
20/02/20   1:35    ---    ---    ---   ---    ---   0.0   ---   0.00   0.0   ---    ---    ---    ---  1014.0  0.00  0.09     ---     ---   21.1    45    8.7   19.8   8.45  .0742    117    1    100.0    5 
20/02/20   1:40    ---    ---    ---   ---    ---   0.0   ---   0.00   0.0   ---    ---    ---    ---  1013.9  0.00  0.05     ---     ---   21.0    45    8.6   19.8   8.45  .0742    115    1    100.0    5 
20/02/20   1:45    ---    ---    ---   ---    ---   0.0   ---   0.00   0.0   ---    ---    ---    ---  1013.8  0.02  3.33     ---     ---   21.0    45    8.6   19.8   8.45  .0742    117    1    100.0    5 
20/02/20   1:50    ---    ---    ---   ---    ---   0.0   ---   0.00   0.0   ---    ---    ---    ---  1013.8  0.03 33.88     ---     ---   20.9    45    8.6   19.8   8.46  .0742    117    1    100.0    5 
20/02/20   1:55    ---    ---    ---   ---    ---   0.0   ---   0.00   0.0   ---    ---    ---    ---  1013.7  0.02 23.04     ---     ---   20.9    45    8.6   19.8   8.46  .0742    117    1    100.0    5 
20/02/20   2:00    ---    ---    ---   ---    ---   0.0   ---   0.00   0.0   ---    ---    ---    ---  1013.8  0.01  0.64     ---     ---   20.9    45    8.5   19.7   8.46  .0742    117    1    100.0    5 
20/02/20   2:05    ---    ---    ---   ---    ---   0.0   ---   0.00   0.0   ---    ---    ---    ---  1013.6  0.02 28.80     ---     ---   20.8    45    8.5   19.7   8.46  .0742    116    1    100.0    5 
20/02/20   2:10    ---    ---    ---   ---    ---   0.0   ---   0.00   0.0   ---    ---    ---    ---  1013.5  0.05 48.00     ---     ---   20.8    45    8.5   19.7   8.46  .0742    117    1    100.0    5 
20/02/20   2:15    ---    ---    ---   ---    ---   0.0   ---   0.00   0.0   ---    ---    ---    ---  1013.4  0.00  0.08     ---     ---   20.8    45    8.4   19.7   8.46  .0742    118    1    100.0    5 
20/02/20   2:20    ---    ---    ---   ---    ---   0.0   ---   0.00   0.0   ---    ---    ---    ---  1013.3  0.01  0.08     ---     ---   20.8    45    8.4   19.7   8.46  .0742    117    1    100.0    5 
20/02/20   2:25    ---    ---    ---   ---    ---   0.0   ---   0.00   0.0   ---    ---    ---    ---  1013.2  0.01  0.16     ---     ---   20.8    45    8.4   19.7   8.46  .0742    117    1    100.0    5 
20/02/20   2:30    ---    ---    ---   ---    ---   0.0   ---   0.00   0.0   ---    ---    ---    ---  1013.0  0.01  0.13     ---     ---   20.7    45    8.4   19.6   8.46  .0742    117    1    100.0    5 
20/02/20   2:35    ---    ---    ---   ---    ---   0.0   ---   0.00   0.0   ---    ---    ---    ---  1013.0  0.02 82.29     ---     ---   20.7    45    8.4   19.6   8.46  .0742    115    1    100.0    5 
20/02/20   2:40    ---    ---    ---   ---    ---   0.0   ---   0.00   0.0   ---    ---    ---    ---  1013.1  0.06 22.15     ---     ---   20.7    45    8.3   19.6   8.47  .0742    117    1    100.0    5 
20/02/20   2:45    ---    ---    ---   ---    ---   0.0   ---   0.00   0.0   ---    ---    ---    ---  1012.9  0.04 14.40     ---     ---   20.7    45    8.3   19.6   8.47  .0742    117    1    100.0    5 
20/02/20   2:50    ---    ---    ---   ---    ---   0.0   ---   0.00   0.0   ---    ---    ---    ---  1012.9  0.00  0.09     ---     ---   20.6    45    8.3   19.6   8.47  .0742    115    1    100.0    5 
20/02/20   2:55    ---    ---    ---   ---    ---   0.0   ---   0.00   0.0   ---    ---    ---    ---  1012.9  0.00  0.05     ---     ---   20.6    45    8.3   19.6   8.47  .0742    117    1    100.0    5 
20/02/20   3:00    ---    ---    ---   ---    ---   0.0   ---   0.00   0.0   ---    ---    ---    ---  1012.9  0.00  0.04     ---     ---   20.6    45    8.2   19.5   8.47  .0742    117    1    100.0    5 
20/02/20   3:05    ---    ---    ---   ---    ---   0.0   ---   0.00   0.0   ---    ---    ---    ---  1013.0  0.03  1.19     ---     ---   20.6    45    8.2   19.5   8.47  .0742    117    1    100.0    5 
20/02/20   3:10    ---    ---    ---   ---    ---   0.0   ---   0.00   0.0   ---    ---    ---    ---  1012.9  0.01  0.51     ---     ---   20.6    45    8.2   19.5   8.47  .0742    116    1    100.0    5 
20/02/20   3:15    ---    ---    ---   ---    ---   0.0   ---   0.00   0.0   ---    ---    ---    ---  1012.8  0.04  8.11     ---     ---   20.6    45    8.3   19.6   8.47  .0742    118    1    100.0    5 
20/02/20   3:20    ---    ---    ---   ---    ---   0.0   ---   0.00   0.0   ---    ---    ---    ---  1012.7  0.05 14.77     ---     ---   20.7    45    8.3   19.6   8.47  .0742    117    1    100.0    5 
20/02/20   3:25    ---    ---    ---   ---    ---   0.0   ---   0.00   0.0   ---    ---    ---    ---  1012.7  0.10 28.80     ---     ---   20.7    45    8.3   19.6   8.47  .0742    117    1    100.0    5 
20/02/20   3:30    ---    ---    ---   ---    ---   0.0   ---   0.00   0.0   ---    ---    ---    ---  1012.7  0.06 16.94     ---     ---   20.7    45    8.4   19.6   8.46  .0742    117    1    100.0    5 
20/02/20   3:35    ---    ---    ---   ---    ---   0.0   ---   0.00   0.0   ---    ---    ---    ---  1012.8  0.01  0.64     ---     ---   20.8    45    8.4   19.7   8.46  .0742    117    1    100.0    5 
20/02/20   3:40    ---    ---    ---   ---    ---   0.0   ---   0.00   0.0   ---    ---    ---    ---  1012.8  0.01  0.12     ---     ---   20.8    45    8.4   19.7   8.46  .0742    115    1    100.0    5 
20/02/20   3:45    ---    ---    ---   ---    ---   0.0   ---   0.00   0.0   ---    ---    ---    ---  1012.7  0.00  0.06     ---     ---   20.8    45    8.4   19.7   8.46  .0742    117    1    100.0    5 
20/02/20   3:50    ---    ---    ---   ---    ---   0.0   ---   0.00   0.0   ---    ---    ---    ---  1012.6  0.01  0.06     ---     ---   20.8    45    8.5   19.7   8.46  .0741    117    1    100.0    5 
20/02/20   3:55    ---    ---    ---   ---    ---   0.0   ---   0.00   0.0   ---    ---    ---    ---  1012.5  0.01  0.11     ---     ---   20.9    45    8.5   19.7   8.46  .0741    117    1    100.0    5 
20/02/20   4:00    ---    ---    ---   ---    ---   0.0   ---   0.00   0.0   ---    ---    ---    ---  1012.4  0.02 26.18     ---     ---   20.9    45    8.6   19.8   8.46  .0741    116    1    100.0    5 
69836